sensor_id;sensor_type;location;lat;lon;timestamp;P1;durP1;ratioP1;P2;durP2;ratioP2
4182;SDS011;2105;52.300;9.182;2023-02-15T00:00:27;18.37;;;16.37;;
4182;SDS011;2105;52.300;9.182;2023-02-15T00:02:55;18.10;;;16.47;;
4182;SDS011;2105;52.300;9.182;2023-02-15T00:05:22;19.03;;;17.00;;
4182;SDS011;2105;52.300;9.182;2023-02-15T00:07:48;18.07;;;16.37;;
4182;SDS011;2105;52.300;9.182;2023-02-15T00:10:15;18.17;;;16.47;;
4182;SDS011;2105;52.300;9.182;2023-02-15T00:12:42;19.10;;;17.13;;
4182;SDS011;2105;52.300;9.182;2023-02-15T00:15:09;19.43;;;17.43;;
4182;SDS011;2105;52.300;9.182;2023-02-15T00:17:37;17.47;;;15.77;;
4182;SDS011;2105;52.300;9.182;2023-02-15T00:20:06;17.80;;;16.20;;
4182;SDS011;2105;52.300;9.182;2023-02-15T00:22:33;18.13;;;16.17;;
4182;SDS011;2105;52.300;9.182;2023-02-15T00:25:00;16.53;;;15.13;;
4182;SDS011;2105;52.300;9.182;2023-02-15T00:27:26;16.77;;;15.30;;
4182;SDS011;2105;52.300;9.182;2023-02-15T00:29:53;18.43;;;16.50;;
4182;SDS011;2105;52.300;9.182;2023-02-15T00:32:20;17.37;;;15.87;;
4182;SDS011;2105;52.300;9.182;2023-02-15T00:34:46;17.50;;;15.90;;
4182;SDS011;2105;52.300;9.182;2023-02-15T00:37:14;16.33;;;14.87;;
4182;SDS011;2105;52.300;9.182;2023-02-15T00:39:41;17.33;;;15.53;;
4182;SDS011;2105;52.300;9.182;2023-02-15T05:58:52;25.00;;;19.80;;
4182;SDS011;2105;52.300;9.182;2023-02-15T06:18:50;21.93;;;18.77;;
4182;SDS011;2105;52.300;9.182;2023-02-15T06:23:43;27.20;;;20.03;;
4182;SDS011;2105;52.300;9.182;2023-02-15T06:44:23;25.90;;;20.27;;
4182;SDS011;2105;52.300;9.182;2023-02-15T06:46:49;28.60;;;21.40;;
4182;SDS011;2105;52.300;9.182;2023-02-15T06:49:16;26.37;;;20.50;;
4182;SDS011;2105;52.300;9.182;2023-02-15T06:51:43;30.10;;;21.47;;
4182;SDS011;2105;52.300;9.182;2023-02-15T06:54:09;26.70;;;19.87;;
4182;SDS011;2105;52.300;9.182;2023-02-15T06:56:36;26.37;;;19.60;;
4182;SDS011;2105;52.300;9.182;2023-02-15T06:59:03;24.77;;;19.33;;
4182;SDS011;2105;52.300;9.182;2023-02-15T07:01:31;28.47;;;20.20;;
4182;SDS011;2105;52.300;9.182;2023-02-15T07:03:58;24.93;;;19.40;;
4182;SDS011;2105;52.300;9.182;2023-02-15T07:06:25;27.90;;;19.80;;
4182;SDS011;2105;52.300;9.182;2023-02-15T07:08:52;26.83;;;19.20;;
4182;SDS011;2105;52.300;9.182;2023-02-15T07:11:18;28.90;;;19.67;;
4182;SDS011;2105;52.300;9.182;2023-02-15T07:14:11;24.80;;;19.83;;
4182;SDS011;2105;52.300;9.182;2023-02-15T07:16:39;30.80;;;21.23;;
4182;SDS011;2105;52.300;9.182;2023-02-15T07:19:06;34.80;;;23.20;;
4182;SDS011;2105;52.300;9.182;2023-02-15T07:21:33;30.33;;;23.10;;
4182;SDS011;2105;52.300;9.182;2023-02-15T07:24:00;34.90;;;25.63;;
4182;SDS011;2105;52.300;9.182;2023-02-15T07:26:27;33.80;;;23.30;;
4182;SDS011;2105;52.300;9.182;2023-02-15T07:28:53;29.87;;;22.20;;
4182;SDS011;2105;52.300;9.182;2023-02-15T07:31:20;32.00;;;22.93;;
4182;SDS011;2105;52.300;9.182;2023-02-15T07:33:48;30.87;;;22.90;;
4182;SDS011;2105;52.300;9.182;2023-02-15T07:36:15;30.70;;;23.50;;
4182;SDS011;2105;52.300;9.182;2023-02-15T07:38:42;32.17;;;24.17;;
4182;SDS011;2105;52.300;9.182;2023-02-15T07:41:12;32.50;;;22.87;;
4182;SDS011;2105;52.300;9.182;2023-02-15T07:46:19;25.77;;;20.60;;
4182;SDS011;2105;52.300;9.182;2023-02-15T07:48:46;27.90;;;20.47;;
4182;SDS011;2105;52.300;9.182;2023-02-15T07:51:14;24.13;;;18.50;;
4182;SDS011;2105;52.300;9.182;2023-02-15T07:53:41;24.20;;;18.43;;
4182;SDS011;2105;52.300;9.182;2023-02-15T07:56:09;22.70;;;19.30;;
4182;SDS011;2105;52.300;9.182;2023-02-15T07:58:37;22.43;;;20.03;;
4182;SDS011;2105;52.300;9.182;2023-02-15T08:01:21;22.00;;;19.70;;
4182;SDS011;2105;52.300;9.182;2023-02-15T08:03:51;22.63;;;20.20;;
4182;SDS011;2105;52.300;9.182;2023-02-15T08:06:18;27.70;;;20.77;;
4182;SDS011;2105;52.300;9.182;2023-02-15T08:08:45;29.30;;;21.73;;
4182;SDS011;2105;52.300;9.182;2023-02-15T08:11:15;27.97;;;22.30;;
4182;SDS011;2105;52.300;9.182;2023-02-15T08:13:59;27.70;;;22.60;;
4182;SDS011;2105;52.300;9.182;2023-02-15T08:16:28;25.63;;;22.83;;
4182;SDS011;2105;52.300;9.182;2023-02-15T08:18:58;30.00;;;24.23;;
4182;SDS011;2105;52.300;9.182;2023-02-15T08:21:27;26.40;;;23.07;;
4182;SDS011;2105;52.300;9.182;2023-02-15T08:23:54;25.83;;;22.67;;
4182;SDS011;2105;52.300;9.182;2023-02-15T08:26:21;28.37;;;24.70;;
4182;SDS011;2105;52.300;9.182;2023-02-15T08:28:48;26.87;;;23.20;;
4182;SDS011;2105;52.300;9.182;2023-02-15T08:31:16;26.30;;;23.20;;
4182;SDS011;2105;52.300;9.182;2023-02-15T08:33:44;29.83;;;23.87;;
4182;SDS011;2105;52.300;9.182;2023-02-15T08:36:14;24.67;;;22.17;;
4182;SDS011;2105;52.300;9.182;2023-02-15T08:38:42;25.07;;;22.20;;
4182;SDS011;2105;52.300;9.182;2023-02-15T08:41:10;25.70;;;23.00;;
4182;SDS011;2105;52.300;9.182;2023-02-15T08:43:38;25.70;;;22.87;;
4182;SDS011;2105;52.300;9.182;2023-02-15T08:46:05;27.17;;;23.67;;
4182;SDS011;2105;52.300;9.182;2023-02-15T08:48:32;27.57;;;23.77;;
4182;SDS011;2105;52.300;9.182;2023-02-15T08:50:59;29.13;;;24.70;;
4182;SDS011;2105;52.300;9.182;2023-02-15T08:53:32;27.77;;;24.77;;
4182;SDS011;2105;52.300;9.182;2023-02-15T08:55:59;26.93;;;24.03;;
4182;SDS011;2105;52.300;9.182;2023-02-15T08:58:26;29.53;;;24.87;;
4182;SDS011;2105;52.300;9.182;2023-02-15T09:00:54;28.07;;;23.63;;
4182;SDS011;2105;52.300;9.182;2023-02-15T09:03:21;29.90;;;24.10;;
4182;SDS011;2105;52.300;9.182;2023-02-15T09:05:48;28.70;;;24.47;;
4182;SDS011;2105;52.300;9.182;2023-02-15T09:08:14;30.40;;;25.03;;
4182;SDS011;2105;52.300;9.182;2023-02-15T09:10:42;29.10;;;24.77;;
4182;SDS011;2105;52.300;9.182;2023-02-15T09:13:09;37.57;;;26.10;;
4182;SDS011;2105;52.300;9.182;2023-02-15T09:15:36;28.20;;;24.50;;
4182;SDS011;2105;52.300;9.182;2023-02-15T09:18:03;30.43;;;24.77;;
4182;SDS011;2105;52.300;9.182;2023-02-15T09:20:31;34.53;;;25.10;;
4182;SDS011;2105;52.300;9.182;2023-02-15T09:22:58;27.50;;;24.13;;
4182;SDS011;2105;52.300;9.182;2023-02-15T09:25:25;31.17;;;25.03;;
4182;SDS011;2105;52.300;9.182;2023-02-15T09:27:53;29.60;;;24.83;;
4182;SDS011;2105;52.300;9.182;2023-02-15T09:30:20;32.90;;;26.00;;
4182;SDS011;2105;52.300;9.182;2023-02-15T09:32:47;31.43;;;25.07;;
4182;SDS011;2105;52.300;9.182;2023-02-15T09:35:14;31.97;;;25.40;;
4182;SDS011;2105;52.300;9.182;2023-02-15T09:37:41;31.50;;;25.40;;
4182;SDS011;2105;52.300;9.182;2023-02-15T09:40:07;30.17;;;26.30;;
4182;SDS011;2105;52.300;9.182;2023-02-15T09:42:48;29.30;;;24.90;;
4182;SDS011;2105;52.300;9.182;2023-02-15T09:45:37;30.43;;;25.60;;
4182;SDS011;2105;52.300;9.182;2023-02-15T09:51:26;29.60;;;25.50;;
4182;SDS011;2105;52.300;9.182;2023-02-15T09:54:06;28.33;;;25.07;;
4182;SDS011;2105;52.300;9.182;2023-02-15T09:56:42;27.83;;;25.03;;
4182;SDS011;2105;52.300;9.182;2023-02-15T09:59:18;28.33;;;25.43;;
4182;SDS011;2105;52.300;9.182;2023-02-15T10:01:53;30.50;;;25.90;;
4182;SDS011;2105;52.300;9.182;2023-02-15T10:04:37;28.67;;;24.77;;
4182;SDS011;2105;52.300;9.182;2023-02-15T10:07:17;49.57;;;26.20;;
4182;SDS011;2105;52.300;9.182;2023-02-15T10:10:02;28.80;;;25.80;;
4182;SDS011;2105;52.300;9.182;2023-02-15T10:12:48;33.50;;;26.70;;
4182;SDS011;2105;52.300;9.182;2023-02-15T10:18:29;31.50;;;27.03;;
4182;SDS011;2105;52.300;9.182;2023-02-15T10:21:10;32.43;;;26.70;;
4182;SDS011;2105;52.300;9.182;2023-02-15T10:23:54;35.80;;;27.27;;
4182;SDS011;2105;52.300;9.182;2023-02-15T10:26:35;38.43;;;25.50;;
4182;SDS011;2105;52.300;9.182;2023-02-15T10:29:09;28.73;;;25.63;;
4182;SDS011;2105;52.300;9.182;2023-02-15T10:31:47;30.60;;;26.53;;
4182;SDS011;2105;52.300;9.182;2023-02-15T10:34:16;29.37;;;26.30;;
4182;SDS011;2105;52.300;9.182;2023-02-15T10:36:53;30.43;;;25.43;;
4182;SDS011;2105;52.300;9.182;2023-02-15T10:39:46;32.53;;;26.90;;
4182;SDS011;2105;52.300;9.182;2023-02-15T10:42:28;34.37;;;26.27;;
4182;SDS011;2105;52.300;9.182;2023-02-15T10:45:06;29.67;;;25.77;;
4182;SDS011;2105;52.300;9.182;2023-02-15T10:47:50;40.70;;;26.30;;
4182;SDS011;2105;52.300;9.182;2023-02-15T10:50:26;28.90;;;24.30;;
4182;SDS011;2105;52.300;9.182;2023-02-15T10:53:11;27.03;;;24.17;;
4182;SDS011;2105;52.300;9.182;2023-02-15T10:55:50;26.00;;;23.27;;
4182;SDS011;2105;52.300;9.182;2023-02-15T10:58:24;27.60;;;24.67;;
4182;SDS011;2105;52.300;9.182;2023-02-15T11:01:06;29.53;;;24.97;;
4182;SDS011;2105;52.300;9.182;2023-02-15T11:03:51;28.93;;;25.73;;
4182;SDS011;2105;52.300;9.182;2023-02-15T11:06:34;28.43;;;25.50;;
4182;SDS011;2105;52.300;9.182;2023-02-15T11:09:03;31.63;;;26.10;;
4182;SDS011;2105;52.300;9.182;2023-02-15T11:11:36;31.87;;;25.63;;
4182;SDS011;2105;52.300;9.182;2023-02-15T11:14:08;28.93;;;25.70;;
4182;SDS011;2105;52.300;9.182;2023-02-15T11:16:40;34.53;;;25.90;;
4182;SDS011;2105;52.300;9.182;2023-02-15T11:19:12;28.90;;;25.80;;
4182;SDS011;2105;52.300;9.182;2023-02-15T11:21:45;28.10;;;25.20;;
4182;SDS011;2105;52.300;9.182;2023-02-15T11:24:17;31.13;;;25.70;;
4182;SDS011;2105;52.300;9.182;2023-02-15T11:26:46;27.40;;;24.60;;
4182;SDS011;2105;52.300;9.182;2023-02-15T11:29:18;28.77;;;25.80;;
4182;SDS011;2105;52.300;9.182;2023-02-15T11:31:50;29.60;;;25.37;;
4182;SDS011;2105;52.300;9.182;2023-02-15T11:34:22;31.80;;;27.23;;
4182;SDS011;2105;52.300;9.182;2023-02-15T11:36:55;29.60;;;26.57;;
4182;SDS011;2105;52.300;9.182;2023-02-15T11:39:28;30.30;;;26.93;;
4182;SDS011;2105;52.300;9.182;2023-02-15T11:41:57;28.50;;;25.70;;
4182;SDS011;2105;52.300;9.182;2023-02-15T11:44:30;29.30;;;26.10;;
4182;SDS011;2105;52.300;9.182;2023-02-15T11:47:01;29.87;;;26.20;;
4182;SDS011;2105;52.300;9.182;2023-02-15T11:49:29;31.20;;;27.10;;
4182;SDS011;2105;52.300;9.182;2023-02-15T11:51:58;29.00;;;25.90;;
4182;SDS011;2105;52.300;9.182;2023-02-15T11:54:29;28.27;;;25.20;;
4182;SDS011;2105;52.300;9.182;2023-02-15T11:56:59;28.60;;;25.50;;
4182;SDS011;2105;52.300;9.182;2023-02-15T11:59:34;28.13;;;24.97;;
4182;SDS011;2105;52.300;9.182;2023-02-15T12:02:15;29.00;;;25.83;;
4182;SDS011;2105;52.300;9.182;2023-02-15T12:04:46;29.83;;;25.27;;
4182;SDS011;2105;52.300;9.182;2023-02-15T12:07:19;28.20;;;25.20;;
4182;SDS011;2105;52.300;9.182;2023-02-15T12:09:51;27.93;;;24.90;;
4182;SDS011;2105;52.300;9.182;2023-02-15T12:12:24;30.17;;;25.60;;
4182;SDS011;2105;52.300;9.182;2023-02-15T12:14:53;28.70;;;24.50;;
4182;SDS011;2105;52.300;9.182;2023-02-15T12:17:23;28.77;;;24.50;;
4182;SDS011;2105;52.300;9.182;2023-02-15T12:19:54;40.67;;;25.43;;
4182;SDS011;2105;52.300;9.182;2023-02-15T12:22:23;27.40;;;23.20;;
4182;SDS011;2105;52.300;9.182;2023-02-15T12:24:52;26.57;;;23.73;;
4182;SDS011;2105;52.300;9.182;2023-02-15T12:27:23;30.07;;;24.10;;
4182;SDS011;2105;52.300;9.182;2023-02-15T12:29:53;27.10;;;23.53;;
4182;SDS011;2105;52.300;9.182;2023-02-15T12:32:24;37.83;;;25.17;;
4182;SDS011;2105;52.300;9.182;2023-02-15T12:34:59;33.03;;;24.40;;
4182;SDS011;2105;52.300;9.182;2023-02-15T12:37:33;29.77;;;24.27;;
4182;SDS011;2105;52.300;9.182;2023-02-15T12:40:01;35.93;;;24.80;;
4182;SDS011;2105;52.300;9.182;2023-02-15T12:42:44;36.30;;;25.37;;
4182;SDS011;2105;52.300;9.182;2023-02-15T12:45:20;38.43;;;24.83;;
4182;SDS011;2105;52.300;9.182;2023-02-15T12:48:07;34.00;;;24.30;;
4182;SDS011;2105;52.300;9.182;2023-02-15T12:50:37;35.00;;;25.37;;
4182;SDS011;2105;52.300;9.182;2023-02-15T12:53:06;34.10;;;23.83;;
4182;SDS011;2105;52.300;9.182;2023-02-15T12:55:34;36.67;;;25.03;;
4182;SDS011;2105;52.300;9.182;2023-02-15T12:58:05;30.47;;;24.17;;
4182;SDS011;2105;52.300;9.182;2023-02-15T13:00:32;29.73;;;23.83;;
4182;SDS011;2105;52.300;9.182;2023-02-15T13:02:59;26.50;;;23.63;;
4182;SDS011;2105;52.300;9.182;2023-02-15T13:05:29;27.77;;;24.80;;
4182;SDS011;2105;52.300;9.182;2023-02-15T13:08:01;26.17;;;23.50;;
4182;SDS011;2105;52.300;9.182;2023-02-15T13:10:31;28.33;;;24.13;;
4182;SDS011;2105;52.300;9.182;2023-02-15T13:13:01;30.10;;;24.93;;
4182;SDS011;2105;52.300;9.182;2023-02-15T13:15:35;29.40;;;24.93;;
4182;SDS011;2105;52.300;9.182;2023-02-15T13:18:05;27.83;;;24.33;;
4182;SDS011;2105;52.300;9.182;2023-02-15T13:20:37;30.43;;;25.80;;
4182;SDS011;2105;52.300;9.182;2023-02-15T13:23:09;31.87;;;24.90;;
4182;SDS011;2105;52.300;9.182;2023-02-15T13:25:46;27.40;;;24.53;;
4182;SDS011;2105;52.300;9.182;2023-02-15T13:28:16;28.83;;;25.83;;
4182;SDS011;2105;52.300;9.182;2023-02-15T13:30:47;29.47;;;26.23;;
4182;SDS011;2105;52.300;9.182;2023-02-15T13:33:16;42.27;;;29.40;;
4182;SDS011;2105;52.300;9.182;2023-02-15T13:35:53;30.53;;;25.20;;
4182;SDS011;2105;52.300;9.182;2023-02-15T13:38:35;41.17;;;27.30;;
4182;SDS011;2105;52.300;9.182;2023-02-15T13:41:23;28.20;;;25.10;;
4182;SDS011;2105;52.300;9.182;2023-02-15T13:43:59;29.43;;;25.43;;
4182;SDS011;2105;52.300;9.182;2023-02-15T13:46:38;35.03;;;25.40;;
4182;SDS011;2105;52.300;9.182;2023-02-15T13:49:18;28.37;;;25.13;;
4182;SDS011;2105;52.300;9.182;2023-02-15T13:52:00;32.20;;;24.93;;
4182;SDS011;2105;52.300;9.182;2023-02-15T13:54:54;33.83;;;24.87;;
4182;SDS011;2105;52.300;9.182;2023-02-15T13:57:56;31.03;;;25.67;;
4182;SDS011;2105;52.300;9.182;2023-02-15T14:00:35;29.90;;;25.80;;
4182;SDS011;2105;52.300;9.182;2023-02-15T14:03:18;29.30;;;24.93;;
4182;SDS011;2105;52.300;9.182;2023-02-15T14:06:16;34.17;;;25.70;;
4182;SDS011;2105;52.300;9.182;2023-02-15T14:08:58;31.30;;;25.33;;
4182;SDS011;2105;52.300;9.182;2023-02-15T14:11:38;42.30;;;27.63;;
4182;SDS011;2105;52.300;9.182;2023-02-15T14:14:17;34.00;;;25.13;;
4182;SDS011;2105;52.300;9.182;2023-02-15T14:17:00;34.70;;;26.17;;
4182;SDS011;2105;52.300;9.182;2023-02-15T14:19:33;30.23;;;24.30;;
4182;SDS011;2105;52.300;9.182;2023-02-15T14:22:06;31.30;;;25.97;;
4182;SDS011;2105;52.300;9.182;2023-02-15T14:24:39;33.73;;;25.07;;
4182;SDS011;2105;52.300;9.182;2023-02-15T14:27:14;36.90;;;27.60;;
4182;SDS011;2105;52.300;9.182;2023-02-15T14:29:49;37.03;;;26.40;;
4182;SDS011;2105;52.300;9.182;2023-02-15T14:32:21;28.27;;;25.27;;
4182;SDS011;2105;52.300;9.182;2023-02-15T14:34:56;35.63;;;26.03;;
4182;SDS011;2105;52.300;9.182;2023-02-15T14:37:33;30.47;;;26.80;;
4182;SDS011;2105;52.300;9.182;2023-02-15T14:40:10;30.50;;;27.00;;
4182;SDS011;2105;52.300;9.182;2023-02-15T14:43:06;30.43;;;26.33;;
4182;SDS011;2105;52.300;9.182;2023-02-15T14:45:39;38.30;;;26.77;;
4182;SDS011;2105;52.300;9.182;2023-02-15T14:48:24;34.37;;;26.57;;
4182;SDS011;2105;52.300;9.182;2023-02-15T14:50:56;29.40;;;26.27;;
4182;SDS011;2105;52.300;9.182;2023-02-15T14:56:20;33.07;;;26.73;;
4182;SDS011;2105;52.300;9.182;2023-02-15T14:58:56;31.03;;;26.40;;
4182;SDS011;2105;52.300;9.182;2023-02-15T15:01:26;37.80;;;26.90;;
4182;SDS011;2105;52.300;9.182;2023-02-15T15:03:55;36.80;;;26.10;;
4182;SDS011;2105;52.300;9.182;2023-02-15T15:06:26;29.90;;;26.70;;
4182;SDS011;2105;52.300;9.182;2023-02-15T15:08:55;29.47;;;26.33;;
4182;SDS011;2105;52.300;9.182;2023-02-15T15:11:37;32.90;;;26.23;;
4182;SDS011;2105;52.300;9.182;2023-02-15T15:14:08;30.67;;;26.30;;
4182;SDS011;2105;52.300;9.182;2023-02-15T15:16:49;32.60;;;26.17;;
4182;SDS011;2105;52.300;9.182;2023-02-15T15:22:32;34.23;;;26.73;;
4182;SDS011;2105;52.300;9.182;2023-02-15T15:25:01;33.23;;;26.90;;
4182;SDS011;2105;52.300;9.182;2023-02-15T15:27:39;33.97;;;26.60;;
4182;SDS011;2105;52.300;9.182;2023-02-15T15:33:35;38.80;;;27.37;;
4182;SDS011;2105;52.300;9.182;2023-02-15T15:36:27;34.77;;;27.97;;
4182;SDS011;2105;52.300;9.182;2023-02-15T15:39:21;33.80;;;26.37;;
4182;SDS011;2105;52.300;9.182;2023-02-15T15:42:08;32.77;;;26.40;;
4182;SDS011;2105;52.300;9.182;2023-02-15T15:44:45;31.50;;;25.40;;
4182;SDS011;2105;52.300;9.182;2023-02-15T15:47:37;27.93;;;24.20;;
4182;SDS011;2105;52.300;9.182;2023-02-15T15:50:21;33.20;;;25.00;;
4182;SDS011;2105;52.300;9.182;2023-02-15T15:52:49;40.13;;;26.00;;
4182;SDS011;2105;52.300;9.182;2023-02-15T15:55:18;28.77;;;23.97;;
4182;SDS011;2105;52.300;9.182;2023-02-15T15:57:48;28.00;;;24.97;;
4182;SDS011;2105;52.300;9.182;2023-02-15T16:00:30;30.90;;;24.40;;
4182;SDS011;2105;52.300;9.182;2023-02-15T16:03:01;28.87;;;23.30;;
4182;SDS011;2105;52.300;9.182;2023-02-15T16:05:36;32.83;;;23.47;;
4182;SDS011;2105;52.300;9.182;2023-02-15T16:08:03;30.40;;;23.93;;
4182;SDS011;2105;52.300;9.182;2023-02-15T16:10:31;29.40;;;24.07;;
4182;SDS011;2105;52.300;9.182;2023-02-15T16:13:01;30.37;;;23.60;;
4182;SDS011;2105;52.300;9.182;2023-02-15T16:15:31;27.83;;;22.87;;
4182;SDS011;2105;52.300;9.182;2023-02-15T16:18:02;30.80;;;24.47;;
4182;SDS011;2105;52.300;9.182;2023-02-15T16:20:30;29.17;;;23.80;;
4182;SDS011;2105;52.300;9.182;2023-02-15T16:23:05;31.50;;;22.97;;
4182;SDS011;2105;52.300;9.182;2023-02-15T16:25:45;28.13;;;22.63;;
4182;SDS011;2105;52.300;9.182;2023-02-15T16:28:20;32.10;;;24.20;;
4182;SDS011;2105;52.300;9.182;2023-02-15T16:30:54;36.47;;;24.07;;
4182;SDS011;2105;52.300;9.182;2023-02-15T16:33:34;27.83;;;23.90;;
4182;SDS011;2105;52.300;9.182;2023-02-15T16:36:02;27.20;;;23.30;;
4182;SDS011;2105;52.300;9.182;2023-02-15T16:38:47;27.40;;;23.13;;
4182;SDS011;2105;52.300;9.182;2023-02-15T16:41:37;34.23;;;22.83;;
4182;SDS011;2105;52.300;9.182;2023-02-15T16:44:05;32.57;;;22.67;;
4182;SDS011;2105;52.300;9.182;2023-02-15T16:46:38;33.50;;;22.70;;
4182;SDS011;2105;52.300;9.182;2023-02-15T16:49:07;26.87;;;22.47;;
4182;SDS011;2105;52.300;9.182;2023-02-15T16:51:43;31.97;;;23.93;;
4182;SDS011;2105;52.300;9.182;2023-02-15T16:54:16;30.20;;;23.50;;
4182;SDS011;2105;52.300;9.182;2023-02-15T16:56:47;33.73;;;24.80;;
4182;SDS011;2105;52.300;9.182;2023-02-15T16:59:17;27.77;;;23.10;;
4182;SDS011;2105;52.300;9.182;2023-02-15T17:02:03;34.63;;;23.40;;
4182;SDS011;2105;52.300;9.182;2023-02-15T17:04:32;27.63;;;22.07;;
4182;SDS011;2105;52.300;9.182;2023-02-15T17:07:03;30.80;;;22.00;;
4182;SDS011;2105;52.300;9.182;2023-02-15T17:09:33;28.07;;;22.77;;
4182;SDS011;2105;52.300;9.182;2023-02-15T17:12:00;32.90;;;24.20;;
4182;SDS011;2105;52.300;9.182;2023-02-15T17:14:28;36.50;;;23.60;;
4182;SDS011;2105;52.300;9.182;2023-02-15T17:17:00;29.30;;;24.30;;
4182;SDS011;2105;52.300;9.182;2023-02-15T17:19:32;34.50;;;25.63;;
4182;SDS011;2105;52.300;9.182;2023-02-15T17:22:14;30.30;;;24.87;;
4182;SDS011;2105;52.300;9.182;2023-02-15T17:24:46;34.77;;;24.63;;
4182;SDS011;2105;52.300;9.182;2023-02-15T17:27:15;33.80;;;24.40;;
4182;SDS011;2105;52.300;9.182;2023-02-15T17:29:45;35.60;;;23.90;;
4182;SDS011;2105;52.300;9.182;2023-02-15T17:32:14;29.67;;;21.77;;
4182;SDS011;2105;52.300;9.182;2023-02-15T17:34:45;32.80;;;21.93;;
4182;SDS011;2105;52.300;9.182;2023-02-15T17:37:23;28.03;;;21.57;;
4182;SDS011;2105;52.300;9.182;2023-02-15T17:39:56;28.13;;;21.70;;
4182;SDS011;2105;52.300;9.182;2023-02-15T17:42:25;27.40;;;21.90;;
4182;SDS011;2105;52.300;9.182;2023-02-15T17:44:52;28.13;;;22.37;;
4182;SDS011;2105;52.300;9.182;2023-02-15T17:47:19;27.87;;;22.90;;
4182;SDS011;2105;52.300;9.182;2023-02-15T17:49:49;34.53;;;23.03;;
4182;SDS011;2105;52.300;9.182;2023-02-15T17:52:16;27.27;;;22.70;;
4182;SDS011;2105;52.300;9.182;2023-02-15T17:54:43;31.23;;;23.10;;
4182;SDS011;2105;52.300;9.182;2023-02-15T17:57:30;31.73;;;23.00;;
4182;SDS011;2105;52.300;9.182;2023-02-15T17:59:57;29.27;;;23.23;;
4182;SDS011;2105;52.300;9.182;2023-02-15T18:02:41;37.10;;;24.90;;
4182;SDS011;2105;52.300;9.182;2023-02-15T18:05:26;29.07;;;22.43;;
4182;SDS011;2105;52.300;9.182;2023-02-15T18:08:11;31.40;;;24.17;;
4182;SDS011;2105;52.300;9.182;2023-02-15T18:10:58;29.00;;;23.40;;
4182;SDS011;2105;52.300;9.182;2023-02-15T18:13:45;26.20;;;22.47;;
4182;SDS011;2105;52.300;9.182;2023-02-15T18:16:12;30.97;;;22.67;;
4182;SDS011;2105;52.300;9.182;2023-02-15T18:18:40;25.73;;;21.07;;
4182;SDS011;2105;52.300;9.182;2023-02-15T18:21:08;30.00;;;22.67;;
4182;SDS011;2105;52.300;9.182;2023-02-15T18:23:36;30.77;;;22.47;;
4182;SDS011;2105;52.300;9.182;2023-02-15T18:26:03;30.40;;;21.87;;
4182;SDS011;2105;52.300;9.182;2023-02-15T18:28:30;26.47;;;21.53;;
4182;SDS011;2105;52.300;9.182;2023-02-15T18:30:58;26.80;;;21.30;;
4182;SDS011;2105;52.300;9.182;2023-02-15T18:33:28;23.93;;;20.90;;
4182;SDS011;2105;52.300;9.182;2023-02-15T18:35:59;28.30;;;21.67;;
4182;SDS011;2105;52.300;9.182;2023-02-15T18:38:27;31.50;;;23.30;;
4182;SDS011;2105;52.300;9.182;2023-02-15T18:40:54;27.50;;;22.93;;
